sensor_id;sensor_type;location;lat;lon;timestamp;P1;durP1;ratioP1;P2;durP2;ratioP2
6928;SDS011;3504;52.616;13.238;2023-05-20T00:02:39;5.67;;;3.30;;
6928;SDS011;3504;52.616;13.238;2023-05-20T00:07:39;5.57;;;4.03;;
6928;SDS011;3504;52.616;13.238;2023-05-20T00:12:40;4.20;;;3.07;;
6928;SDS011;3504;52.616;13.238;2023-05-20T00:17:40;5.23;;;4.00;;
6928;SDS011;3504;52.616;13.238;2023-05-20T00:22:41;4.00;;;3.33;;
6928;SDS011;3504;52.616;13.238;2023-05-20T00:27:41;4.80;;;3.80;;
6928;SDS011;3504;52.616;13.238;2023-05-20T00:32:42;6.07;;;3.47;;
6928;SDS011;3504;52.616;13.238;2023-05-20T00:37:43;4.30;;;3.30;;
6928;SDS011;3504;52.616;13.238;2023-05-20T00:42:44;5.07;;;3.60;;
6928;SDS011;3504;52.616;13.238;2023-05-20T00:47:44;3.77;;;3.37;;
6928;SDS011;3504;52.616;13.238;2023-05-20T00:52:45;5.57;;;3.37;;
6928;SDS011;3504;52.616;13.238;2023-05-20T00:57:48;4.53;;;3.57;;
6928;SDS011;3504;52.616;13.238;2023-05-20T01:02:49;6.50;;;3.83;;
6928;SDS011;3504;52.616;13.238;2023-05-20T01:07:50;6.17;;;3.63;;
6928;SDS011;3504;52.616;13.238;2023-05-20T01:12:53;5.70;;;3.53;;
6928;SDS011;3504;52.616;13.238;2023-05-20T01:17:57;4.93;;;3.33;;
6928;SDS011;3504;52.616;13.238;2023-05-20T01:23:04;6.50;;;3.83;;
6928;SDS011;3504;52.616;13.238;2023-05-20T01:28:05;7.60;;;4.10;;
6928;SDS011;3504;52.616;13.238;2023-05-20T01:33:10;5.40;;;3.37;;
6928;SDS011;3504;52.616;13.238;2023-05-20T01:38:12;6.47;;;3.93;;
6928;SDS011;3504;52.616;13.238;2023-05-20T01:43:14;8.20;;;4.33;;
6928;SDS011;3504;52.616;13.238;2023-05-20T01:48:16;7.67;;;3.80;;
6928;SDS011;3504;52.616;13.238;2023-05-20T01:53:17;5.77;;;3.90;;
6928;SDS011;3504;52.616;13.238;2023-05-20T01:58:20;7.03;;;4.20;;
6928;SDS011;3504;52.616;13.238;2023-05-20T02:03:21;11.60;;;4.13;;
6928;SDS011;3504;52.616;13.238;2023-05-20T02:08:21;5.00;;;3.73;;
6928;SDS011;3504;52.616;13.238;2023-05-20T02:13:22;6.27;;;4.10;;
6928;SDS011;3504;52.616;13.238;2023-05-20T02:18:22;5.67;;;4.20;;
6928;SDS011;3504;52.616;13.238;2023-05-20T02:23:25;7.17;;;4.20;;
6928;SDS011;3504;52.616;13.238;2023-05-20T02:28:25;6.20;;;4.20;;
6928;SDS011;3504;52.616;13.238;2023-05-20T02:33:28;6.47;;;3.93;;
6928;SDS011;3504;52.616;13.238;2023-05-20T02:38:29;5.60;;;3.97;;
6928;SDS011;3504;52.616;13.238;2023-05-20T02:43:31;6.43;;;4.20;;
6928;SDS011;3504;52.616;13.238;2023-05-20T02:48:34;4.83;;;4.03;;
6928;SDS011;3504;52.616;13.238;2023-05-20T02:53:35;7.40;;;4.47;;
6928;SDS011;3504;52.616;13.238;2023-05-20T02:58:35;4.80;;;3.60;;
6928;SDS011;3504;52.616;13.238;2023-05-20T03:03:36;8.17;;;4.47;;
6928;SDS011;3504;52.616;13.238;2023-05-20T03:08:38;5.40;;;4.07;;
6928;SDS011;3504;52.616;13.238;2023-05-20T03:13:39;7.57;;;4.23;;
6928;SDS011;3504;52.616;13.238;2023-05-20T03:18:39;8.03;;;4.43;;
6928;SDS011;3504;52.616;13.238;2023-05-20T03:23:40;6.13;;;4.63;;
6928;SDS011;3504;52.616;13.238;2023-05-20T03:28:42;5.43;;;3.90;;
6928;SDS011;3504;52.616;13.238;2023-05-20T03:33:43;5.57;;;4.53;;
6928;SDS011;3504;52.616;13.238;2023-05-20T03:38:45;6.57;;;4.27;;
6928;SDS011;3504;52.616;13.238;2023-05-20T03:43:45;5.27;;;4.13;;
6928;SDS011;3504;52.616;13.238;2023-05-20T03:48:46;4.90;;;4.37;;
6928;SDS011;3504;52.616;13.238;2023-05-20T03:53:46;7.27;;;4.27;;
6928;SDS011;3504;52.616;13.238;2023-05-20T03:58:48;5.13;;;4.20;;
6928;SDS011;3504;52.616;13.238;2023-05-20T04:03:48;6.40;;;4.33;;
6928;SDS011;3504;52.616;13.238;2023-05-20T04:08:49;5.50;;;4.30;;
6928;SDS011;3504;52.616;13.238;2023-05-20T04:13:49;7.80;;;4.70;;
6928;SDS011;3504;52.616;13.238;2023-05-20T04:18:50;5.43;;;4.20;;
6928;SDS011;3504;52.616;13.238;2023-05-20T04:23:54;6.77;;;4.67;;
6928;SDS011;3504;52.616;13.238;2023-05-20T04:28:54;8.10;;;4.50;;
6928;SDS011;3504;52.616;13.238;2023-05-20T04:33:58;8.47;;;4.80;;
6928;SDS011;3504;52.616;13.238;2023-05-20T04:38:58;7.47;;;4.70;;
6928;SDS011;3504;52.616;13.238;2023-05-20T04:43:59;10.63;;;5.13;;
6928;SDS011;3504;52.616;13.238;2023-05-20T04:49:01;7.93;;;5.27;;
6928;SDS011;3504;52.616;13.238;2023-05-20T04:54:03;7.13;;;4.90;;
6928;SDS011;3504;52.616;13.238;2023-05-20T04:59:04;7.93;;;5.27;;
6928;SDS011;3504;52.616;13.238;2023-05-20T05:04:04;6.17;;;4.97;;
6928;SDS011;3504;52.616;13.238;2023-05-20T05:09:05;8.97;;;5.47;;
6928;SDS011;3504;52.616;13.238;2023-05-20T05:14:05;7.63;;;5.47;;
6928;SDS011;3504;52.616;13.238;2023-05-20T05:19:07;7.87;;;5.43;;
6928;SDS011;3504;52.616;13.238;2023-05-20T05:24:11;7.00;;;5.03;;
6928;SDS011;3504;52.616;13.238;2023-05-20T05:29:12;10.83;;;5.37;;
6928;SDS011;3504;52.616;13.238;2023-05-20T05:34:12;8.47;;;5.37;;
6928;SDS011;3504;52.616;13.238;2023-05-20T05:39:13;7.50;;;5.47;;
6928;SDS011;3504;52.616;13.238;2023-05-20T05:44:14;7.87;;;5.37;;
6928;SDS011;3504;52.616;13.238;2023-05-20T05:49:14;11.43;;;5.90;;
6928;SDS011;3504;52.616;13.238;2023-05-20T05:54:16;8.50;;;5.80;;
6928;SDS011;3504;52.616;13.238;2023-05-20T05:59:16;9.10;;;6.33;;
6928;SDS011;3504;52.616;13.238;2023-05-20T06:04:18;7.33;;;6.10;;
6928;SDS011;3504;52.616;13.238;2023-05-20T06:09:19;8.17;;;5.97;;
6928;SDS011;3504;52.616;13.238;2023-05-20T06:14:20;8.37;;;5.73;;
6928;SDS011;3504;52.616;13.238;2023-05-20T06:19:21;9.17;;;5.87;;
6928;SDS011;3504;52.616;13.238;2023-05-20T06:24:22;11.33;;;6.10;;
6928;SDS011;3504;52.616;13.238;2023-05-20T06:29:22;12.23;;;5.93;;
6928;SDS011;3504;52.616;13.238;2023-05-20T06:34:23;8.63;;;6.00;;
6928;SDS011;3504;52.616;13.238;2023-05-20T06:39:24;8.33;;;5.90;;
6928;SDS011;3504;52.616;13.238;2023-05-20T06:44:25;11.63;;;6.37;;
6928;SDS011;3504;52.616;13.238;2023-05-20T06:49:45;10.40;;;6.50;;
6928;SDS011;3504;52.616;13.238;2023-05-20T06:54:46;10.03;;;6.17;;
6928;SDS011;3504;52.616;13.238;2023-05-20T06:59:47;8.63;;;6.63;;
6928;SDS011;3504;52.616;13.238;2023-05-20T07:04:49;10.53;;;6.00;;
6928;SDS011;3504;52.616;13.238;2023-05-20T07:09:51;8.43;;;6.43;;
6928;SDS011;3504;52.616;13.238;2023-05-20T07:14:52;8.67;;;6.47;;
6928;SDS011;3504;52.616;13.238;2023-05-20T07:19:54;11.00;;;6.20;;
6928;SDS011;3504;52.616;13.238;2023-05-20T07:24:55;10.27;;;5.97;;
6928;SDS011;3504;52.616;13.238;2023-05-20T07:29:56;9.80;;;6.20;;
6928;SDS011;3504;52.616;13.238;2023-05-20T07:34:57;7.83;;;6.13;;
6928;SDS011;3504;52.616;13.238;2023-05-20T07:39:57;8.10;;;5.57;;
6928;SDS011;3504;52.616;13.238;2023-05-20T07:44:58;8.93;;;6.17;;
6928;SDS011;3504;52.616;13.238;2023-05-20T07:49:59;8.27;;;5.90;;
6928;SDS011;3504;52.616;13.238;2023-05-20T07:55:00;7.77;;;5.43;;
6928;SDS011;3504;52.616;13.238;2023-05-20T08:00:01;8.03;;;6.13;;
6928;SDS011;3504;52.616;13.238;2023-05-20T08:05:03;7.17;;;5.73;;
6928;SDS011;3504;52.616;13.238;2023-05-20T08:10:05;10.67;;;6.27;;
6928;SDS011;3504;52.616;13.238;2023-05-20T08:15:06;8.43;;;5.20;;
6928;SDS011;3504;52.616;13.238;2023-05-20T08:20:09;8.10;;;6.00;;
6928;SDS011;3504;52.616;13.238;2023-05-20T08:25:11;9.33;;;6.40;;
6928;SDS011;3504;52.616;13.238;2023-05-20T08:30:12;11.57;;;6.30;;
6928;SDS011;3504;52.616;13.238;2023-05-20T08:35:13;9.17;;;6.33;;
6928;SDS011;3504;52.616;13.238;2023-05-20T08:40:14;9.60;;;5.80;;
6928;SDS011;3504;52.616;13.238;2023-05-20T08:45:16;6.63;;;5.30;;
6928;SDS011;3504;52.616;13.238;2023-05-20T08:50:21;7.57;;;5.90;;
6928;SDS011;3504;52.616;13.238;2023-05-20T08:55:31;9.73;;;6.67;;
6928;SDS011;3504;52.616;13.238;2023-05-20T09:00:48;8.30;;;5.40;;
6928;SDS011;3504;52.616;13.238;2023-05-20T09:05:50;9.03;;;6.13;;
6928;SDS011;3504;52.616;13.238;2023-05-20T09:10:52;7.33;;;6.13;;
6928;SDS011;3504;52.616;13.238;2023-05-20T09:15:53;7.37;;;5.30;;
6928;SDS011;3504;52.616;13.238;2023-05-20T09:20:53;6.63;;;5.27;;
6928;SDS011;3504;52.616;13.238;2023-05-20T09:25:54;7.73;;;4.90;;
6928;SDS011;3504;52.616;13.238;2023-05-20T09:30:58;5.97;;;5.27;;
6928;SDS011;3504;52.616;13.238;2023-05-20T09:36:03;8.37;;;5.27;;
6928;SDS011;3504;52.616;13.238;2023-05-20T09:41:10;7.90;;;5.77;;
6928;SDS011;3504;52.616;13.238;2023-05-20T09:46:11;8.70;;;5.30;;
6928;SDS011;3504;52.616;13.238;2023-05-20T09:51:13;7.70;;;5.20;;
6928;SDS011;3504;52.616;13.238;2023-05-20T09:56:14;5.83;;;4.97;;
6928;SDS011;3504;52.616;13.238;2023-05-20T10:01:18;8.13;;;5.70;;
6928;SDS011;3504;52.616;13.238;2023-05-20T10:11:43;8.70;;;5.83;;
6928;SDS011;3504;52.616;13.238;2023-05-20T10:17:09;9.63;;;6.10;;
6928;SDS011;3504;52.616;13.238;2023-05-20T10:22:27;8.30;;;6.47;;
6928;SDS011;3504;52.616;13.238;2023-05-20T10:27:30;9.40;;;5.90;;
6928;SDS011;3504;52.616;13.238;2023-05-20T10:33:02;7.13;;;6.43;;
6928;SDS011;3504;52.616;13.238;2023-05-20T10:38:08;8.70;;;5.87;;
6928;SDS011;3504;52.616;13.238;2023-05-20T10:43:11;8.43;;;5.90;;
6928;SDS011;3504;52.616;13.238;2023-05-20T10:48:22;9.37;;;6.80;;
6928;SDS011;3504;52.616;13.238;2023-05-20T10:53:39;8.73;;;7.40;;
6928;SDS011;3504;52.616;13.238;2023-05-20T10:58:41;8.60;;;6.38;;
6928;SDS011;3504;52.616;13.238;2023-05-20T11:03:44;9.55;;;7.10;;
6928;SDS011;3504;52.616;13.238;2023-05-20T11:08:46;10.00;;;6.80;;
6928;SDS011;3504;52.616;13.238;2023-05-20T11:13:50;7.70;;;6.47;;
6928;SDS011;3504;52.616;13.238;2023-05-20T11:18:51;10.05;;;7.15;;
6928;SDS011;3504;52.616;13.238;2023-05-20T11:23:52;9.15;;;7.43;;
6928;SDS011;3504;52.616;13.238;2023-05-20T11:28:53;9.70;;;7.40;;
6928;SDS011;3504;52.616;13.238;2023-05-20T11:33:54;9.88;;;7.40;;
6928;SDS011;3504;52.616;13.238;2023-05-20T11:38:57;10.27;;;8.00;;
6928;SDS011;3504;52.616;13.238;2023-05-20T11:43:59;9.63;;;7.22;;
6928;SDS011;3504;52.616;13.238;2023-05-20T11:49:00;11.30;;;7.60;;
6928;SDS011;3504;52.616;13.238;2023-05-20T11:54:01;14.35;;;8.10;;
6928;SDS011;3504;52.616;13.238;2023-05-20T11:59:04;11.07;;;7.85;;
6928;SDS011;3504;52.616;13.238;2023-05-20T12:04:05;13.70;;;8.50;;
6928;SDS011;3504;52.616;13.238;2023-05-20T12:09:07;12.88;;;8.73;;
6928;SDS011;3504;52.616;13.238;2023-05-20T12:14:08;9.75;;;8.55;;
6928;SDS011;3504;52.616;13.238;2023-05-20T12:19:09;11.30;;;8.50;;
6928;SDS011;3504;52.616;13.238;2023-05-20T12:24:09;9.27;;;8.30;;
6928;SDS011;3504;52.616;13.238;2023-05-20T12:29:10;10.32;;;8.50;;
6928;SDS011;3504;52.616;13.238;2023-05-20T12:34:11;9.68;;;8.63;;
6928;SDS011;3504;52.616;13.238;2023-05-20T12:39:13;11.52;;;9.10;;
6928;SDS011;3504;52.616;13.238;2023-05-20T12:44:16;10.18;;;8.52;;
6928;SDS011;3504;52.616;13.238;2023-05-20T12:49:17;10.98;;;8.90;;
6928;SDS011;3504;52.616;13.238;2023-05-20T12:54:18;9.27;;;8.30;;
6928;SDS011;3504;52.616;13.238;2023-05-20T12:59:19;10.48;;;8.70;;
6928;SDS011;3504;52.616;13.238;2023-05-20T13:04:20;8.95;;;8.05;;
6928;SDS011;3504;52.616;13.238;2023-05-20T13:09:20;11.32;;;8.57;;
6928;SDS011;3504;52.616;13.238;2023-05-20T13:14:21;9.50;;;8.57;;
6928;SDS011;3504;52.616;13.238;2023-05-20T13:19:22;9.50;;;8.25;;
6928;SDS011;3504;52.616;13.238;2023-05-20T13:24:23;9.80;;;8.43;;
6928;SDS011;3504;52.616;13.238;2023-05-20T13:29:23;11.73;;;8.07;;
6928;SDS011;3504;52.616;13.238;2023-05-20T13:34:24;13.45;;;8.57;;
6928;SDS011;3504;52.616;13.238;2023-05-20T13:39:24;10.18;;;8.63;;
6928;SDS011;3504;52.616;13.238;2023-05-20T13:44:26;10.88;;;8.50;;
6928;SDS011;3504;52.616;13.238;2023-05-20T13:49:26;11.90;;;7.80;;
6928;SDS011;3504;52.616;13.238;2023-05-20T13:54:27;9.63;;;7.70;;
6928;SDS011;3504;52.616;13.238;2023-05-20T13:59:27;10.68;;;8.07;;
6928;SDS011;3504;52.616;13.238;2023-05-20T14:04:28;9.50;;;8.25;;
6928;SDS011;3504;52.616;13.238;2023-05-20T14:09:30;10.95;;;8.15;;
6928;SDS011;3504;52.616;13.238;2023-05-20T14:14:30;10.30;;;8.23;;
6928;SDS011;3504;52.616;13.238;2023-05-20T14:19:31;13.27;;;8.43;;
6928;SDS011;3504;52.616;13.238;2023-05-20T14:24:31;10.23;;;7.82;;
6928;SDS011;3504;52.616;13.238;2023-05-20T14:29:32;9.60;;;7.97;;
6928;SDS011;3504;52.616;13.238;2023-05-20T14:34:32;8.85;;;7.95;;
6928;SDS011;3504;52.616;13.238;2023-05-20T14:39:33;9.00;;;7.75;;
6928;SDS011;3504;52.616;13.238;2023-05-20T14:44:33;11.50;;;8.70;;
6928;SDS011;3504;52.616;13.238;2023-05-20T14:49:34;11.00;;;8.27;;
6928;SDS011;3504;52.616;13.238;2023-05-20T14:54:38;9.50;;;8.23;;
6928;SDS011;3504;52.616;13.238;2023-05-20T14:59:38;11.02;;;9.52;;
6928;SDS011;3504;52.616;13.238;2023-05-20T15:04:38;10.77;;;8.75;;
6928;SDS011;3504;52.616;13.238;2023-05-20T15:09:40;10.00;;;9.00;;
6928;SDS011;3504;52.616;13.238;2023-05-20T15:14:40;9.25;;;8.15;;
6928;SDS011;3504;52.616;13.238;2023-05-20T15:19:41;11.15;;;8.25;;
6928;SDS011;3504;52.616;13.238;2023-05-20T15:24:41;8.75;;;7.70;;
6928;SDS011;3504;52.616;13.238;2023-05-20T15:29:42;12.00;;;8.15;;
6928;SDS011;3504;52.616;13.238;2023-05-20T15:34:42;11.80;;;7.30;;
6928;SDS011;3504;52.616;13.238;2023-05-20T15:39:43;8.07;;;7.30;;
6928;SDS011;3504;52.616;13.238;2023-05-20T15:44:44;8.60;;;7.70;;
6928;SDS011;3504;52.616;13.238;2023-05-20T15:49:44;8.63;;;7.15;;
6928;SDS011;3504;52.616;13.238;2023-05-20T15:54:45;8.05;;;7.03;;
6928;SDS011;3504;52.616;13.238;2023-05-20T15:59:46;8.02;;;7.32;;
6928;SDS011;3504;52.616;13.238;2023-05-20T16:04:46;9.52;;;7.40;;
6928;SDS011;3504;52.616;13.238;2023-05-20T16:09:47;8.20;;;7.18;;
6928;SDS011;3504;52.616;13.238;2023-05-20T16:14:47;7.32;;;6.63;;
6928;SDS011;3504;52.616;13.238;2023-05-20T16:19:48;6.68;;;6.07;;
6928;SDS011;3504;52.616;13.238;2023-05-20T16:24:49;7.68;;;6.55;;
6928;SDS011;3504;52.616;13.238;2023-05-20T16:29:49;10.93;;;7.53;;
6928;SDS011;3504;52.616;13.238;2023-05-20T16:34:50;8.43;;;7.20;;
6928;SDS011;3504;52.616;13.238;2023-05-20T16:39:50;6.57;;;5.93;;
6928;SDS011;3504;52.616;13.238;2023-05-20T16:44:51;7.43;;;6.68;;
6928;SDS011;3504;52.616;13.238;2023-05-20T16:49:51;10.48;;;6.90;;
6928;SDS011;3504;52.616;13.238;2023-05-20T16:54:52;9.55;;;7.05;;
6928;SDS011;3504;52.616;13.238;2023-05-20T16:59:57;7.00;;;6.30;;
6928;SDS011;3504;52.616;13.238;2023-05-20T17:04:58;8.15;;;7.10;;
6928;SDS011;3504;52.616;13.238;2023-05-20T17:09:58;10.13;;;6.88;;
6928;SDS011;3504;52.616;13.238;2023-05-20T17:15:00;7.00;;;6.30;;
6928;SDS011;3504;52.616;13.238;2023-05-20T17:20:00;7.72;;;6.32;;
6928;SDS011;3504;52.616;13.238;2023-05-20T17:25:01;7.10;;;5.97;;
6928;SDS011;3504;52.616;13.238;2023-05-20T17:30:01;8.57;;;6.28;;
6928;SDS011;3504;52.616;13.238;2023-05-20T17:35:02;7.22;;;6.53;;
6928;SDS011;3504;52.616;13.238;2023-05-20T17:40:04;7.82;;;6.38;;
6928;SDS011;3504;52.616;13.238;2023-05-20T17:45:05;7.68;;;6.40;;
6928;SDS011;3504;52.616;13.238;2023-05-20T17:50:06;7.85;;;6.70;;
6928;SDS011;3504;52.616;13.238;2023-05-20T17:55:09;8.25;;;6.55;;
6928;SDS011;3504;52.616;13.238;2023-05-20T18:00:09;7.63;;;6.53;;
6928;SDS011;3504;52.616;13.238;2023-05-20T18:05:14;7.22;;;6.53;;
6928;SDS011;3504;52.616;13.238;2023-05-20T18:10:18;6.82;;;6.13;;
6928;SDS011;3504;52.616;13.238;2023-05-20T18:15:18;8.30;;;6.40;;
6928;SDS011;3504;52.616;13.238;2023-05-20T18:20:20;7.38;;;6.68;;
6928;SDS011;3504;52.616;13.238;2023-05-20T18:25:20;11.35;;;7.55;;
6928;SDS011;3504;52.616;13.238;2023-05-20T18:30:21;8.77;;;7.28;;
6928;SDS011;3504;52.616;13.238;2023-05-20T18:35:22;7.55;;;6.85;;
6928;SDS011;3504;52.616;13.238;2023-05-20T18:40:22;7.60;;;6.80;;
6928;SDS011;3504;52.616;13.238;2023-05-20T18:45:23;9.13;;;7.20;;
6928;SDS011;3504;52.616;13.238;2023-05-20T18:50:25;8.38;;;7.13;;
6928;SDS011;3504;52.616;13.238;2023-05-20T18:55:25;7.43;;;6.60;;
6928;SDS011;3504;52.616;13.238;2023-05-20T19:00:26;10.32;;;6.95;;
6928;SDS011;3504;52.616;13.238;2023-05-20T19:05:26;11.07;;;7.50;;
6928;SDS011;3504;52.616;13.238;2023-05-20T19:10:27;8.30;;;7.28;;
6928;SDS011;3504;52.616;13.238;2023-05-20T19:15:27;12.07;;;7.00;;
6928;SDS011;3504;52.616;13.238;2023-05-20T19:20:30;9.05;;;7.68;;
6928;SDS011;3504;52.616;13.238;2023-05-20T19:25:30;9.38;;;7.00;;
6928;SDS011;3504;52.616;13.238;2023-05-20T19:30:31;8.15;;;7.32;;
6928;SDS011;3504;52.616;13.238;2023-05-20T19:35:32;9.82;;;7.70;;
6928;SDS011;3504;52.616;13.238;2023-05-20T19:40:33;7.88;;;7.03;;
6928;SDS011;3504;52.616;13.238;2023-05-20T19:45:34;7.85;;;7.05;;
6928;SDS011;3504;52.616;13.238;2023-05-20T19:50:35;9.65;;;7.80;;
6928;SDS011;3504;52.616;13.238;2023-05-20T19:55:36;8.15;;;7.13;;
6928;SDS011;3504;52.616;13.238;2023-05-20T20:00:37;8.40;;;7.18;;
6928;SDS011;3504;52.616;13.238;2023-05-20T20:05:38;8.45;;;7.10;;
6928;SDS011;3504;52.616;13.238;2023-05-20T20:10:38;11.07;;;7.90;;
6928;SDS011;3504;52.616;13.238;2023-05-20T20:15:39;9.35;;;8.25;;
6928;SDS011;3504;52.616;13.238;2023-05-20T20:20:39;10.27;;;7.45;;
6928;SDS011;3504;52.616;13.238;2023-05-20T20:25:41;8.77;;;7.88;;
6928;SDS011;3504;52.616;13.238;2023-05-20T20:30:42;10.25;;;8.60;;
6928;SDS011;3504;52.616;13.238;2023-05-20T20:35:43;9.35;;;8.45;;
6928;SDS011;3504;52.616;13.238;2023-05-20T20:40:44;10.80;;;8.70;;
6928;SDS011;3504;52.616;13.238;2023-05-20T20:45:45;9.85;;;8.07;;
6928;SDS011;3504;52.616;13.238;2023-05-20T20:50:46;9.45;;;8.20;;
6928;SDS011;3504;52.616;13.238;2023-05-20T20:55:46;10.73;;;9.07;;
6928;SDS011;3504;52.616;13.238;2023-05-20T21:00:47;10.30;;;9.10;;
6928;SDS011;3504;52.616;13.238;2023-05-20T21:05:47;11.35;;;9.30;;
6928;SDS011;3504;52.616;13.238;2023-05-20T21:10:48;10.73;;;9.73;;
6928;SDS011;3504;52.616;13.238;2023-05-20T21:15:48;11.43;;;10.18;;
6928;SDS011;3504;52.616;13.238;2023-05-20T21:20:50;13.25;;;10.93;;
6928;SDS011;3504;52.616;13.238;2023-05-20T21:25:52;15.05;;;11.00;;
6928;SDS011;3504;52.616;13.238;2023-05-20T21:30:52;11.03;;;9.83;;
6928;SDS011;3504;52.616;13.238;2023-05-20T21:35:53;11.13;;;9.97;;
6928;SDS011;3504;52.616;13.238;2023-05-20T21:40:53;11.10;;;9.87;;
6928;SDS011;3504;52.616;13.238;2023-05-20T21:45:54;11.00;;;9.87;;
6928;SDS011;3504;52.616;13.238;2023-05-20T21:50:55;11.17;;;10.07;;
6928;SDS011;3504;52.616;13.238;2023-05-20T21:55:55;13.10;;;10.68;;
6928;SDS011;3504;52.616;13.238;2023-05-20T22:00:56;13.97;;;11.13;;
6928;SDS011;3504;52.616;13.238;2023-05-20T22:05:56;13.30;;;10.90;;
6928;SDS011;3504;52.616;13.238;2023-05-20T22:10:57;12.00;;;10.80;;
6928;SDS011;3504;52.616;13.238;2023-05-20T22:16:00;13.93;;;11.27;;
6928;SDS011;3504;52.616;13.238;2023-05-20T22:21:03;12.63;;;11.27;;
6928;SDS011;3504;52.616;13.238;2023-05-20T22:26:04;12.33;;;10.87;;
6928;SDS011;3504;52.616;13.238;2023-05-20T22:31:07;12.60;;;11.30;;
6928;SDS011;3504;52.616;13.238;2023-05-20T22:36:08;13.23;;;11.70;;
6928;SDS011;3504;52.616;13.238;2023-05-20T22:41:08;12.83;;;11.63;;
6928;SDS011;3504;52.616;13.238;2023-05-20T22:46:09;14.07;;;11.80;;
6928;SDS011;3504;52.616;13.238;2023-05-20T22:51:09;13.10;;;11.33;;
6928;SDS011;3504;52.616;13.238;2023-05-20T22:56:10;13.97;;;11.93;;
6928;SDS011;3504;52.616;13.238;2023-05-20T23:01:11;14.60;;;13.10;;
6928;SDS011;3504;52.616;13.238;2023-05-20T23:06:11;15.23;;;12.90;;
6928;SDS011;3504;52.616;13.238;2023-05-20T23:11:12;15.07;;;13.47;;
6928;SDS011;3504;52.616;13.238;2023-05-20T23:16:12;14.97;;;13.47;;
6928;SDS011;3504;52.616;13.238;2023-05-20T23:21:13;15.97;;;14.27;;
6928;SDS011;3504;52.616;13.238;2023-05-20T23:26:13;18.67;;;15.27;;
6928;SDS011;3504;52.616;13.238;2023-05-20T23:31:14;21.10;;;16.30;;
6928;SDS011;3504;52.616;13.238;2023-05-20T23:36:14;22.70;;;16.60;;
6928;SDS011;3504;52.616;13.238;2023-05-20T23:41:16;19.60;;;16.63;;
6928;SDS011;3504;52.616;13.238;2023-05-20T23:46:17;19.83;;;16.57;;
6928;SDS011;3504;52.616;13.238;2023-05-20T23:51:18;18.87;;;15.90;;
6928;SDS011;3504;52.616;13.238;2023-05-20T23:56:18;18.67;;;15.80;;
